createdAt,value
2022-11-16T00:02:08.943Z,480.65
2022-11-16T00:04:35.416Z,537.88
2022-11-16T00:07:01.817Z,851.20
2022-11-16T00:09:28.359Z,686.85
2022-11-16T00:11:54.655Z,650.58
2022-11-16T00:14:21.266Z,623.92
2022-11-16T00:16:47.681Z,620.13
2022-11-16T00:19:14.197Z,606.47
2022-11-16T00:21:40.619Z,591.05
2022-11-16T00:24:07.007Z,570.92
2022-11-16T00:26:33.412Z,571.33
2022-11-16T00:28:59.915Z,554.20
2022-11-16T00:31:26.317Z,555.75
2022-11-16T00:33:52.638Z,549.53
2022-11-16T00:36:18.995Z,552.85
2022-11-16T00:38:45.723Z,538.75
2022-11-16T00:41:12.152Z,534.42
2022-11-16T00:43:38.531Z,529.45
2022-11-16T00:46:04.933Z,515.28
2022-11-16T00:48:31.690Z,508.63
2022-11-16T00:50:58.336Z,500.25
2022-11-16T00:53:24.770Z,499.85
2022-11-16T00:55:51.124Z,483.77
2022-11-16T00:58:17.648Z,477.30
2022-11-16T01:00:44.083Z,476.75
2022-11-16T01:03:10.484Z,461.30
2022-11-16T01:05:36.849Z,468.75
2022-11-16T01:08:03.297Z,460.35
2022-11-16T01:10:29.615Z,455.10
2022-11-16T01:12:56.118Z,447.80
2022-11-16T01:15:22.445Z,433.02
2022-11-16T01:17:48.799Z,425.95
2022-11-16T01:20:16.136Z,430.30
2022-11-16T01:22:42.469Z,413.60
2022-11-16T01:25:08.837Z,420.63
2022-11-16T01:27:35.310Z,412.45
2022-11-16T01:30:01.765Z,410.60
2022-11-16T01:32:28.514Z,406.73
2022-11-16T01:34:54.935Z,402.67
2022-11-16T01:37:21.272Z,400.65
2022-11-16T01:39:47.814Z,396.90
2022-11-16T01:42:14.496Z,391.27
2022-11-16T01:44:40.807Z,387.25
2022-11-16T01:47:07.158Z,387.33
2022-11-16T01:49:33.554Z,386.55
2022-11-16T01:51:59.889Z,369.40
2022-11-16T01:54:26.414Z,371.70
2022-11-16T01:56:52.753Z,372.77
2022-11-16T01:59:19.133Z,366.73
2022-11-16T02:01:45.582Z,356.42
2022-11-16T02:04:12.624Z,362.65
2022-11-16T02:06:39.630Z,349.13
2022-11-16T02:09:09.676Z,342.90
2022-11-16T02:11:36.078Z,346.00
2022-11-16T02:14:02.442Z,338.05
2022-11-16T02:16:28.869Z,339.75
2022-11-16T02:18:55.277Z,332.88
2022-11-16T02:21:21.708Z,310.45
2022-11-16T02:23:48.121Z,323.15
2022-11-16T02:26:14.570Z,315.00
2022-11-16T02:28:40.950Z,309.70
2022-11-16T02:31:07.292Z,306.33
2022-11-16T02:33:33.707Z,306.17
2022-11-16T02:36:00.009Z,299.98
2022-11-16T02:38:26.461Z,298.20
2022-11-16T02:40:52.983Z,290.85
2022-11-16T02:43:19.315Z,296.63
2022-11-16T02:45:45.677Z,287.73
2022-11-16T02:48:11.962Z,282.02
2022-11-16T02:50:38.419Z,280.02
2022-11-16T02:53:04.753Z,275.30
2022-11-16T02:55:31.088Z,276.58
2022-11-16T02:57:57.415Z,265.30
2022-11-16T03:00:23.910Z,268.67
2022-11-16T03:02:50.406Z,267.90
2022-11-16T03:05:16.754Z,258.55
2022-11-16T03:07:43.081Z,256.95
2022-11-16T03:10:09.883Z,251.95
2022-11-16T03:12:36.272Z,252.63
2022-11-16T03:15:02.676Z,243.82
2022-11-16T03:17:29.038Z,249.88
2022-11-16T03:19:55.346Z,240.15
2022-11-16T03:22:21.634Z,236.10
2022-11-16T03:24:47.935Z,238.00
2022-11-16T03:27:14.311Z,234.38
2022-11-16T03:29:40.753Z,232.90
2022-11-16T03:32:07.104Z,228.10
2022-11-16T03:34:33.553Z,228.50
2022-11-16T03:36:59.942Z,218.48
2022-11-16T03:39:26.425Z,214.50
2022-11-16T03:41:52.775Z,218.57
2022-11-16T03:44:19.154Z,207.23
2022-11-16T03:46:45.525Z,201.82
2022-11-16T03:49:11.916Z,201.10
2022-11-16T03:51:38.210Z,202.88
2022-11-16T03:54:04.686Z,196.77
2022-11-16T03:56:31.011Z,196.00
2022-11-16T03:58:57.503Z,192.65
2022-11-16T04:01:23.871Z,190.82
2022-11-16T04:03:50.215Z,189.82
2022-11-16T04:06:16.529Z,185.65
2022-11-16T04:08:42.928Z,187.40
2022-11-16T04:11:09.411Z,187.85
2022-11-16T04:13:35.869Z,180.32
2022-11-16T04:16:02.332Z,179.77
2022-11-16T04:18:28.680Z,173.80
2022-11-16T04:20:55.069Z,178.15
2022-11-16T04:23:21.678Z,172.10
2022-11-16T04:25:48.166Z,169.55
2022-11-16T04:28:14.663Z,168.75
2022-11-16T04:30:40.986Z,167.32
2022-11-16T04:33:07.362Z,159.30
2022-11-16T04:35:33.809Z,163.52
2022-11-16T04:38:00.227Z,158.07
2022-11-16T04:40:26.682Z,154.15
2022-11-16T04:42:53.236Z,154.05
2022-11-16T04:45:19.564Z,152.77
2022-11-16T04:47:45.941Z,148.82
2022-11-16T04:50:12.346Z,149.48
2022-11-16T04:52:38.743Z,141.52
2022-11-16T04:55:07.427Z,148.00
2022-11-16T04:57:33.936Z,139.20
2022-11-16T05:00:00.310Z,140.63
2022-11-16T05:02:26.876Z,137.32
2022-11-16T05:04:53.321Z,134.57
2022-11-16T05:07:19.758Z,136.05
2022-11-16T05:09:46.175Z,127.68
2022-11-16T05:12:12.545Z,128.98
2022-11-16T05:14:39.022Z,131.55
2022-11-16T05:17:05.538Z,123.78
2022-11-16T05:19:31.925Z,123.70
2022-11-16T05:21:58.420Z,118.40
2022-11-16T05:24:24.796Z,122.22
2022-11-16T05:26:51.216Z,116.10
2022-11-16T05:29:17.663Z,115.72
2022-11-16T05:31:44.285Z,114.45
2022-11-16T05:34:10.872Z,108.68
2022-11-16T05:36:37.319Z,112.50
2022-11-16T05:39:03.687Z,114.18
2022-11-16T05:41:30.246Z,111.13
2022-11-16T05:43:56.597Z,107.72
2022-11-16T05:46:23.044Z,107.80
2022-11-16T05:48:49.397Z,106.68
2022-11-16T05:51:15.752Z,103.28
2022-11-16T05:53:43.416Z,102.22
2022-11-16T05:56:09.836Z,100.53
2022-11-16T05:58:36.551Z,99.15
2022-11-16T06:01:03.227Z,99.10
2022-11-16T06:03:29.823Z,96.75
2022-11-16T06:05:56.350Z,98.68
2022-11-16T06:08:22.735Z,97.15
2022-11-16T06:10:49.113Z,91.38
2022-11-16T06:13:19.508Z,95.95
2022-11-16T06:18:17.985Z,92.25
2022-11-16T06:20:44.355Z,93.28
2022-11-16T06:23:10.696Z,92.60
2022-11-16T06:25:37.046Z,90.90
2022-11-16T06:28:07.666Z,91.30
2022-11-16T06:30:34.576Z,90.00
2022-11-16T06:33:00.988Z,87.50
2022-11-16T06:35:27.445Z,86.97
2022-11-16T06:40:34.152Z,75.47
2022-11-16T06:43:00.520Z,80.78
2022-11-16T06:45:26.986Z,79.53
2022-11-16T06:47:53.290Z,83.15
2022-11-16T06:50:19.918Z,77.00
2022-11-16T06:52:46.571Z,80.28
2022-11-16T06:55:12.908Z,81.07
2022-11-16T06:57:39.453Z,77.43
2022-11-16T07:00:05.798Z,79.93
2022-11-16T07:02:32.122Z,78.35
2022-11-16T07:05:03.310Z,82.13
2022-11-16T07:07:30.557Z,82.15
2022-11-16T07:09:56.944Z,80.07
2022-11-16T07:12:23.297Z,80.25
2022-11-16T07:14:49.779Z,79.85
2022-11-16T07:17:17.159Z,80.22
2022-11-16T07:19:43.598Z,78.45
2022-11-16T07:22:09.989Z,81.15
2022-11-16T07:24:36.327Z,81.00
2022-11-16T07:27:02.671Z,78.00
2022-11-16T07:29:29.022Z,83.65
2022-11-16T07:31:55.392Z,87.38
2022-11-16T07:34:21.705Z,82.80
2022-11-16T07:36:50.045Z,87.07
2022-11-16T07:39:16.386Z,83.15
2022-11-16T07:41:42.904Z,84.97
2022-11-16T07:44:12.034Z,89.75
2022-11-16T07:46:46.562Z,85.88
2022-11-16T07:49:13.862Z,86.05
2022-11-16T07:51:40.273Z,102.32
2022-11-16T07:54:06.657Z,103.40
2022-11-16T07:56:33.047Z,105.82
2022-11-16T07:58:59.588Z,118.28
2022-11-16T08:01:26.059Z,118.07
2022-11-16T08:03:52.691Z,118.38
2022-11-16T08:06:19.369Z,123.97
2022-11-16T08:08:45.758Z,118.82
2022-11-16T08:11:12.189Z,119.53
2022-11-16T08:13:38.598Z,128.05
2022-11-16T08:16:04.951Z,138.38
2022-11-16T08:18:31.828Z,120.35
2022-11-16T08:20:58.503Z,111.43
2022-11-16T08:23:24.849Z,118.63
2022-11-16T08:25:51.263Z,111.95
2022-11-16T08:28:17.888Z,115.80
2022-11-16T08:30:48.381Z,112.03
2022-11-16T08:33:17.421Z,110.30
2022-11-16T08:35:43.878Z,109.80
2022-11-16T08:38:10.357Z,106.18
2022-11-16T08:40:36.742Z,107.07
2022-11-16T08:43:03.119Z,104.47
2022-11-16T08:45:29.621Z,106.65
2022-11-16T08:48:03.368Z,109.20
2022-11-16T08:50:33.462Z,108.05
2022-11-16T08:53:06.195Z,110.53
2022-11-16T08:55:32.733Z,108.70
2022-11-16T08:57:59.488Z,105.80
2022-11-16T09:00:25.823Z,102.93
2022-11-16T09:02:52.169Z,103.93
2022-11-16T09:05:18.469Z,103.72
2022-11-16T09:07:44.809Z,105.03
2022-11-16T09:10:11.301Z,108.13
2022-11-16T09:12:37.879Z,108.18
2022-11-16T09:15:04.221Z,112.18
2022-11-16T09:17:30.779Z,113.70
2022-11-16T09:19:57.147Z,105.03
2022-11-16T09:22:23.547Z,104.75
2022-11-16T09:24:50.124Z,102.30
2022-11-16T09:27:16.603Z,107.72
2022-11-16T09:29:42.992Z,106.45
2022-11-16T09:32:09.424Z,108.80
2022-11-16T09:34:35.744Z,100.05
2022-11-16T09:37:02.152Z,99.25
2022-11-16T09:39:31.493Z,98.63
2022-11-16T09:41:58.348Z,93.78
2022-11-16T09:44:25.138Z,98.72
2022-11-16T09:46:51.806Z,101.35
2022-11-16T09:49:18.383Z,93.07
2022-11-16T09:51:45.086Z,95.80
2022-11-16T09:54:11.631Z,90.75
2022-11-16T09:56:37.999Z,94.28
2022-11-16T09:59:04.464Z,90.85
2022-11-16T10:01:30.838Z,93.65
2022-11-16T10:03:57.323Z,94.18
2022-11-16T10:06:23.837Z,92.38
2022-11-16T10:08:50.317Z,86.90
2022-11-16T10:11:16.714Z,82.35
2022-11-16T10:13:43.309Z,85.60
2022-11-16T10:16:09.713Z,86.88
2022-11-16T10:18:36.070Z,82.25
2022-11-16T10:21:02.529Z,84.10
2022-11-16T10:23:29.027Z,82.82
2022-11-16T10:25:55.590Z,80.13
2022-11-16T10:28:21.970Z,83.57
2022-11-16T10:30:48.412Z,82.07
2022-11-16T10:33:14.884Z,81.97
2022-11-16T10:35:41.306Z,78.07
2022-11-16T10:38:07.864Z,75.60
2022-11-16T10:40:34.390Z,77.97
2022-11-16T10:43:00.846Z,71.60
2022-11-16T10:45:27.242Z,72.45
2022-11-16T10:47:53.848Z,76.28
2022-11-16T10:50:20.300Z,69.63
2022-11-16T10:52:46.836Z,71.50
2022-11-16T10:55:13.205Z,69.45
2022-11-16T10:57:39.595Z,69.20
2022-11-16T11:00:12.540Z,71.47
2022-11-16T11:02:39.158Z,64.85
2022-11-16T11:05:05.708Z,65.30
2022-11-16T11:07:32.822Z,62.97
2022-11-16T11:09:59.357Z,67.90
2022-11-16T11:12:25.735Z,63.85
2022-11-16T11:14:52.127Z,60.28
2022-11-16T11:17:18.768Z,56.25
2022-11-16T11:19:45.338Z,59.50
2022-11-16T11:22:11.738Z,58.70
2022-11-16T11:24:44.265Z,59.25
2022-11-16T11:27:11.612Z,53.85
2022-11-16T11:29:38.270Z,53.47
2022-11-16T11:32:04.681Z,59.50
2022-11-16T11:34:31.049Z,56.30
2022-11-16T11:36:57.397Z,53.50
2022-11-16T11:39:23.854Z,54.28
2022-11-16T11:41:50.416Z,53.28
2022-11-16T11:44:16.761Z,48.35
2022-11-16T11:47:28.605Z,50.50
2022-11-16T11:49:33.664Z,51.00
2022-11-16T11:52:00.573Z,49.10
2022-11-16T11:54:27.047Z,48.83
2022-11-16T11:56:53.544Z,49.30
2022-11-16T11:59:20.084Z,48.20
2022-11-16T12:01:46.516Z,45.78
2022-11-16T12:04:12.921Z,43.35
2022-11-16T12:06:43.748Z,46.72
2022-11-16T12:09:10.821Z,42.83
2022-11-16T12:11:37.308Z,47.50
2022-11-16T12:14:03.743Z,42.38
2022-11-16T12:16:30.296Z,44.58
2022-11-16T12:18:56.930Z,41.33
2022-11-16T12:21:23.267Z,43.47
2022-11-16T12:23:49.754Z,39.00
2022-11-16T12:26:16.169Z,40.65
2022-11-16T12:28:44.908Z,41.17
2022-11-16T12:31:13.590Z,41.83
2022-11-16T12:33:40.383Z,39.55
2022-11-16T12:36:06.747Z,37.33
2022-11-16T12:38:33.204Z,36.75
2022-11-16T12:40:59.794Z,39.10
2022-11-16T12:43:26.283Z,36.40
2022-11-16T12:45:52.853Z,36.20
2022-11-16T12:48:19.211Z,36.85
2022-11-16T12:50:45.780Z,36.30
2022-11-16T12:53:13.952Z,34.25
2022-11-16T12:55:40.294Z,35.92
2022-11-16T12:58:06.798Z,31.95
2022-11-16T13:00:33.392Z,34.30
2022-11-16T13:02:59.825Z,33.55
2022-11-16T13:05:26.362Z,35.65
2022-11-16T13:07:52.985Z,34.25
2022-11-16T13:10:19.444Z,30.55
2022-11-16T13:12:45.862Z,32.35
2022-11-16T13:15:12.301Z,31.75
2022-11-16T13:17:38.633Z,33.63
2022-11-16T13:20:06.288Z,33.17
2022-11-16T13:25:01.917Z,31.95
2022-11-16T13:27:28.291Z,31.90
2022-11-16T13:29:54.723Z,30.20
2022-11-16T13:32:21.125Z,32.03
2022-11-16T13:34:47.838Z,32.47
2022-11-16T13:37:14.315Z,32.20
2022-11-16T13:39:40.949Z,30.10
2022-11-16T13:42:09.521Z,31.70
2022-11-16T13:44:35.902Z,29.02
2022-11-16T13:47:02.440Z,30.20
2022-11-16T13:49:28.887Z,32.20
2022-11-16T13:51:55.235Z,29.08
2022-11-16T13:57:09.248Z,29.08
2022-11-16T13:59:35.826Z,29.48
2022-11-16T14:02:02.397Z,30.80
2022-11-16T14:04:29.031Z,31.30
2022-11-16T14:06:55.543Z,28.98
2022-11-16T14:09:21.976Z,30.45
2022-11-16T14:11:48.539Z,31.02
2022-11-16T14:14:15.044Z,28.33
2022-11-16T14:16:41.507Z,28.42
2022-11-16T14:19:08.012Z,28.67
2022-11-16T14:21:34.452Z,27.08
2022-11-16T14:24:00.897Z,27.30
2022-11-16T14:26:27.957Z,26.77
2022-11-16T14:28:54.397Z,26.17
2022-11-16T14:31:20.841Z,26.23
2022-11-16T14:33:47.324Z,25.27
2022-11-16T14:36:14.056Z,26.45
2022-11-16T14:38:40.462Z,28.38
2022-11-16T14:41:06.818Z,24.40
2022-11-16T14:43:33.740Z,26.13
2022-11-16T14:46:00.439Z,24.90
2022-11-16T14:48:29.063Z,26.40
2022-11-16T14:50:55.489Z,27.25
2022-11-16T14:53:21.880Z,27.95
2022-11-16T14:55:49.219Z,26.33
2022-11-16T14:58:15.692Z,24.95
2022-11-16T15:00:42.128Z,25.85
2022-11-16T15:03:08.674Z,26.35
2022-11-16T15:05:35.185Z,26.42
2022-11-16T15:08:01.608Z,25.88
2022-11-16T15:10:28.333Z,25.83
2022-11-16T15:12:54.715Z,24.10
2022-11-16T15:15:21.270Z,25.08
2022-11-16T15:17:47.633Z,26.58
2022-11-16T15:20:14.104Z,23.85
2022-11-16T15:22:40.841Z,25.17
2022-11-16T15:25:07.158Z,25.05
2022-11-16T15:27:34.255Z,23.88
2022-11-16T15:30:00.624Z,23.20
2022-11-16T15:32:27.140Z,24.50
2022-11-16T15:34:53.594Z,26.02
2022-11-16T15:37:23.052Z,23.00
2022-11-16T15:39:49.472Z,26.33
2022-11-16T15:42:16.177Z,23.02
2022-11-16T15:44:42.645Z,25.27
2022-11-16T15:47:09.030Z,23.05
2022-11-16T15:49:35.725Z,23.17
2022-11-16T15:52:02.133Z,21.15
2022-11-16T15:54:28.479Z,22.73
2022-11-16T15:56:54.867Z,25.42
2022-11-16T15:59:21.184Z,24.80
2022-11-16T16:01:47.764Z,21.75
2022-11-16T16:04:14.404Z,20.75
2022-11-16T16:06:41.108Z,22.00
2022-11-16T16:09:07.580Z,20.73
2022-11-16T16:11:34.043Z,21.77
2022-11-16T16:14:00.503Z,20.65
2022-11-16T16:16:26.857Z,22.17
2022-11-16T16:18:53.329Z,21.25
2022-11-16T16:21:19.703Z,20.10
2022-11-16T16:23:46.166Z,19.33
2022-11-16T16:26:12.484Z,20.33
2022-11-16T16:28:39.085Z,21.27
2022-11-16T16:31:05.411Z,20.88
2022-11-16T16:33:31.997Z,19.42
2022-11-16T16:35:58.646Z,20.45
2022-11-16T16:38:24.996Z,19.95
2022-11-16T16:40:51.365Z,20.40
2022-11-16T16:43:17.888Z,17.98
2022-11-16T16:45:44.392Z,19.25
2022-11-16T16:48:10.940Z,19.10
2022-11-16T16:50:37.236Z,18.45
2022-11-16T16:53:03.545Z,18.52
2022-11-16T16:55:35.713Z,19.13
2022-11-16T16:58:03.545Z,21.42
2022-11-16T17:00:29.895Z,18.60
2022-11-16T17:02:56.233Z,17.52
2022-11-16T17:05:22.617Z,17.35
2022-11-16T17:07:49.038Z,17.27
2022-11-16T17:10:15.404Z,16.60
2022-11-16T17:12:41.744Z,16.95
2022-11-16T17:15:08.064Z,17.85
2022-11-16T17:17:34.428Z,17.17
2022-11-16T17:20:01.085Z,16.00
2022-11-16T17:22:27.753Z,16.90
2022-11-16T17:24:54.122Z,17.30
2022-11-16T17:27:20.838Z,16.08
2022-11-16T17:29:47.424Z,15.05
2022-11-16T17:32:13.917Z,15.10
2022-11-16T17:34:40.315Z,17.08
2022-11-16T17:37:06.740Z,15.25
2022-11-16T17:39:33.117Z,15.77
2022-11-16T17:41:59.558Z,17.15
2022-11-16T17:44:25.908Z,16.23
2022-11-16T17:46:52.305Z,14.38
2022-11-16T17:49:18.659Z,15.43
2022-11-16T17:51:45.000Z,15.93
2022-11-16T17:54:11.333Z,14.93
2022-11-16T17:56:37.624Z,15.60
2022-11-16T17:59:04.306Z,13.40
2022-11-16T18:01:30.832Z,13.70
2022-11-16T18:03:57.323Z,13.38
2022-11-16T18:06:23.601Z,14.27
2022-11-16T18:08:49.974Z,13.52
2022-11-16T18:11:16.336Z,14.00
2022-11-16T18:13:42.677Z,13.75
2022-11-16T18:16:09.214Z,12.93
2022-11-16T18:18:35.543Z,15.30
2022-11-16T18:21:02.021Z,11.25
2022-11-16T18:23:30.465Z,13.75
2022-11-16T18:25:56.837Z,12.98
2022-11-16T18:28:23.392Z,12.18
2022-11-16T18:30:49.750Z,12.80
2022-11-16T18:33:16.199Z,13.02
2022-11-16T18:35:42.691Z,11.55
2022-11-16T18:38:09.048Z,10.95
2022-11-16T18:40:35.350Z,10.65
2022-11-16T18:43:01.704Z,10.93
2022-11-16T18:45:28.115Z,12.68
2022-11-16T18:47:54.493Z,11.30
2022-11-16T18:50:26.538Z,14.00
2022-11-16T18:52:53.281Z,12.48
2022-11-16T18:55:19.666Z,11.60
2022-11-16T18:57:46.024Z,10.27
2022-11-16T19:00:12.372Z,11.93
2022-11-16T19:02:38.846Z,11.90
2022-11-16T19:05:05.259Z,10.57
2022-11-16T19:07:31.685Z,11.77
2022-11-16T19:09:58.066Z,12.02
2022-11-16T19:12:24.404Z,9.88
2022-11-16T19:14:50.809Z,11.05
2022-11-16T19:17:17.155Z,10.07
2022-11-16T19:19:43.526Z,11.57
2022-11-16T19:22:10.896Z,12.38
2022-11-16T19:24:37.385Z,11.15
2022-11-16T19:27:03.750Z,11.02
2022-11-16T19:29:30.209Z,10.07
2022-11-16T19:31:56.528Z,11.80
2022-11-16T19:34:23.102Z,11.30
2022-11-16T19:36:50.720Z,10.27
2022-11-16T19:39:17.266Z,10.82
2022-11-16T19:41:43.646Z,11.07
2022-11-16T19:44:09.990Z,12.20
2022-11-16T19:46:36.299Z,11.23
2022-11-16T19:49:02.847Z,11.45
2022-11-16T19:51:29.216Z,12.15
2022-11-16T19:53:55.601Z,12.32
2022-11-16T19:56:21.937Z,11.75
2022-11-16T19:58:48.273Z,10.57
2022-11-16T20:01:14.740Z,11.25
2022-11-16T20:03:41.354Z,11.00
2022-11-16T20:06:07.823Z,10.50
2022-11-16T20:08:34.246Z,11.05
2022-11-16T20:11:00.599Z,11.52
2022-11-16T20:13:27.097Z,11.07
2022-11-16T20:15:53.471Z,10.77
2022-11-16T20:18:19.852Z,11.13
2022-11-16T20:20:46.210Z,11.52
2022-11-16T20:23:12.570Z,11.52
2022-11-16T20:25:38.929Z,11.45
2022-11-16T20:28:05.298Z,11.70
2022-11-16T20:30:31.685Z,10.23
2022-11-16T20:32:58.152Z,10.60
2022-11-16T20:35:24.502Z,10.75
2022-11-16T20:37:50.878Z,10.80
2022-11-16T20:40:17.267Z,10.57
2022-11-16T20:42:43.642Z,10.82
2022-11-16T20:45:10.010Z,10.85
2022-11-16T20:47:36.341Z,10.93
2022-11-16T20:50:02.802Z,10.25
2022-11-16T20:52:29.178Z,10.43
2022-11-16T20:54:55.602Z,11.07
2022-11-16T20:57:22.025Z,10.13
2022-11-16T20:59:48.412Z,10.85
2022-11-16T21:02:14.785Z,10.10
2022-11-16T21:04:41.186Z,9.40
2022-11-16T21:07:07.560Z,10.02
2022-11-16T21:09:33.901Z,10.43
2022-11-16T21:12:00.556Z,9.90
2022-11-16T21:14:27.225Z,10.23
2022-11-16T21:16:53.578Z,9.85
2022-11-16T21:19:19.916Z,9.43
2022-11-16T21:21:46.284Z,11.50
2022-11-16T21:24:12.683Z,10.55
2022-11-16T21:26:39.032Z,10.73
2022-11-16T21:29:05.644Z,9.07
2022-11-16T21:31:31.997Z,9.20
2022-11-16T21:33:58.432Z,9.18
2022-11-16T21:36:24.781Z,9.35
2022-11-16T21:38:51.190Z,10.30
2022-11-16T21:41:17.562Z,9.13
2022-11-16T21:43:44.215Z,8.98
2022-11-16T21:46:10.559Z,9.30
2022-11-16T21:48:37.072Z,8.82
2022-11-16T21:51:03.597Z,9.07
2022-11-16T21:53:29.897Z,8.82
2022-11-16T21:55:56.403Z,9.00
2022-11-16T21:58:22.773Z,10.15
2022-11-16T22:00:49.217Z,9.75
2022-11-16T22:03:15.762Z,7.70
2022-11-16T22:05:42.089Z,8.73
2022-11-16T22:08:08.600Z,8.18
2022-11-16T22:10:35.000Z,8.63
2022-11-16T22:13:01.389Z,8.65
2022-11-16T22:15:27.872Z,8.50
2022-11-16T22:17:54.469Z,8.45
2022-11-16T22:20:20.805Z,8.80
2022-11-16T22:22:47.250Z,7.72
2022-11-16T22:25:13.941Z,8.55
2022-11-16T22:27:58.837Z,7.93
2022-11-16T22:30:26.937Z,8.73
2022-11-16T22:32:53.306Z,9.23
2022-11-16T22:35:19.711Z,7.85
2022-11-16T22:37:46.412Z,7.97
2022-11-16T22:40:17.601Z,9.10
2022-11-16T22:42:44.386Z,7.70
2022-11-16T22:45:10.818Z,8.85
2022-11-16T22:47:37.259Z,8.02
2022-11-16T22:50:03.654Z,8.55
2022-11-16T22:52:30.066Z,8.23
2022-11-16T22:54:56.407Z,8.55
2022-11-16T22:57:22.800Z,9.00
2022-11-16T22:59:49.264Z,8.38
2022-11-16T23:02:15.692Z,8.27
2022-11-16T23:04:42.084Z,9.70
2022-11-16T23:07:08.573Z,8.85
2022-11-16T23:09:35.278Z,7.82
2022-11-16T23:12:04.416Z,8.55
2022-11-16T23:14:30.833Z,9.88
2022-11-16T23:16:57.295Z,9.65
2022-11-16T23:19:23.683Z,8.75
2022-11-16T23:21:50.017Z,8.35
2022-11-16T23:24:16.455Z,8.25
2022-11-16T23:26:42.809Z,9.60
2022-11-16T23:29:09.160Z,8.40
2022-11-16T23:31:35.507Z,9.27
2022-11-16T23:34:01.916Z,8.75
2022-11-16T23:36:28.289Z,8.52
2022-11-16T23:38:54.875Z,9.40
2022-11-16T23:41:21.232Z,8.93
2022-11-16T23:43:47.776Z,8.45
2022-11-16T23:46:14.167Z,7.82
2022-11-16T23:48:40.582Z,8.55
2022-11-16T23:51:07.100Z,9.18
2022-11-16T23:53:34.041Z,9.52
2022-11-16T23:56:05.524Z,9.15
2022-11-16T23:58:32.574Z,9.23
